Terminal Aerodrome Forecast
Issued by NWS

Home | Current Version | Previous Version | Graphics & Text | Print | Product List | Glossary On
Versions: 1 2 3 4 5 6 7 8 9 10 11 12 13 14 15 16 17 18 19 20 21 22 23 24 25 26 27 28
970
FTUS42 KMHX 291130
TAFPGV
TAF
KPGV 291130Z 2912/3012 01006KT 4SM BR OVC003
      TEMPO 2912/2913 1SM BR OVC001
     FM291400 01006KT P6SM SCT007 BKN015
     FM291700 36006KT P6SM SCT040
     FM300800 VRB04KT 4SM BR SCT007 BKN020
      AMD LTD TO CLD VIS AND WIND=

USA.gov is the U.S. government's official web portal to all federal, state and local government web resources and services.